sensor_id;sensor_type;location;lat;lon;timestamp;P1;durP1;ratioP1;P2;durP2;ratioP2
73154;SDS011;61364;52.418;7.382;2022-07-23T00:05:25;4.37;;;4.37;;
73154;SDS011;61364;52.418;7.382;2022-07-23T00:07:51;4.52;;;4.52;;
73154;SDS011;61364;52.418;7.382;2022-07-23T00:12:54;4.08;;;4.08;;
73154;SDS011;61364;52.418;7.382;2022-07-23T00:15:19;4.02;;;4.02;;
73154;SDS011;61364;52.418;7.382;2022-07-23T00:17:45;4.33;;;4.33;;
73154;SDS011;61364;52.418;7.382;2022-07-23T00:20:11;4.10;;;4.10;;
73154;SDS011;61364;52.418;7.382;2022-07-23T00:25:28;3.86;;;3.86;;
73154;SDS011;61364;52.418;7.382;2022-07-23T00:27:54;4.02;;;4.02;;
73154;SDS011;61364;52.418;7.382;2022-07-23T00:30:19;4.05;;;4.05;;
73154;SDS011;61364;52.418;7.382;2022-07-23T00:33:00;4.43;;;4.43;;
73154;SDS011;61364;52.418;7.382;2022-07-23T00:35:27;4.22;;;4.22;;
73154;SDS011;61364;52.418;7.382;2022-07-23T00:44:18;4.60;;;4.60;;
73154;SDS011;61364;52.418;7.382;2022-07-23T00:49:47;4.71;;;4.71;;
73154;SDS011;61364;52.418;7.382;2022-07-23T00:52:31;4.87;;;4.87;;
73154;SDS011;61364;52.418;7.382;2022-07-23T00:58:00;4.23;;;4.23;;
73154;SDS011;61364;52.418;7.382;2022-07-23T01:00:27;4.35;;;4.35;;
73154;SDS011;61364;52.418;7.382;2022-07-23T01:02:53;4.05;;;4.05;;
73154;SDS011;61364;52.418;7.382;2022-07-23T01:05:19;4.39;;;4.39;;
73154;SDS011;61364;52.418;7.382;2022-07-23T01:07:50;4.52;;;4.52;;
73154;SDS011;61364;52.418;7.382;2022-07-23T01:10:16;4.39;;;4.39;;
73154;SDS011;61364;52.418;7.382;2022-07-23T01:13:00;4.18;;;4.18;;
73154;SDS011;61364;52.418;7.382;2022-07-23T01:15:27;4.60;;;4.60;;
73154;SDS011;61364;52.418;7.382;2022-07-23T01:17:54;4.43;;;4.43;;
73154;SDS011;61364;52.418;7.382;2022-07-23T01:20:20;4.36;;;4.36;;
73154;SDS011;61364;52.418;7.382;2022-07-23T01:22:57;4.38;;;4.38;;
73154;SDS011;61364;52.418;7.382;2022-07-23T01:25:22;4.37;;;4.37;;
73154;SDS011;61364;52.418;7.382;2022-07-23T01:27:48;4.65;;;4.65;;
73154;SDS011;61364;52.418;7.382;2022-07-23T01:30:31;4.54;;;4.54;;
73154;SDS011;61364;52.418;7.382;2022-07-23T01:32:56;5.09;;;5.09;;
73154;SDS011;61364;52.418;7.382;2022-07-23T01:35:22;5.52;;;5.52;;
73154;SDS011;61364;52.418;7.382;2022-07-23T01:37:58;5.38;;;5.38;;
73154;SDS011;61364;52.418;7.382;2022-07-23T01:40:24;5.34;;;5.34;;
73154;SDS011;61364;52.418;7.382;2022-07-23T01:42:49;5.20;;;5.20;;
73154;SDS011;61364;52.418;7.382;2022-07-23T01:48:16;5.38;;;5.38;;
73154;SDS011;61364;52.418;7.382;2022-07-23T01:50:42;5.54;;;5.54;;
73154;SDS011;61364;52.418;7.382;2022-07-23T01:55:53;6.12;;;6.12;;
73154;SDS011;61364;52.418;7.382;2022-07-23T01:58:18;6.40;;;6.40;;
73154;SDS011;61364;52.418;7.382;2022-07-23T02:00:54;7.06;;;7.06;;
73154;SDS011;61364;52.418;7.382;2022-07-23T02:03:20;7.07;;;7.07;;
73154;SDS011;61364;52.418;7.382;2022-07-23T02:05:45;6.89;;;6.89;;
73154;SDS011;61364;52.418;7.382;2022-07-23T02:08:11;6.86;;;6.86;;
73154;SDS011;61364;52.418;7.382;2022-07-23T02:10:49;6.92;;;6.92;;
73154;SDS011;61364;52.418;7.382;2022-07-23T02:13:17;7.26;;;7.26;;
73154;SDS011;61364;52.418;7.382;2022-07-23T02:21:15;7.47;;;7.47;;
73154;SDS011;61364;52.418;7.382;2022-07-23T02:26:31;6.65;;;6.65;;
73154;SDS011;61364;52.418;7.382;2022-07-23T02:34:57;6.05;;;6.05;;
73154;SDS011;61364;52.418;7.382;2022-07-23T02:37:23;5.68;;;5.68;;
73154;SDS011;61364;52.418;7.382;2022-07-23T02:39:48;5.61;;;5.61;;
73154;SDS011;61364;52.418;7.382;2022-07-23T02:42:32;5.49;;;5.49;;
73154;SDS011;61364;52.418;7.382;2022-07-23T02:48:00;4.95;;;4.95;;
73154;SDS011;61364;52.418;7.382;2022-07-23T02:52:55;4.98;;;4.98;;
73154;SDS011;61364;52.418;7.382;2022-07-23T02:55:21;4.39;;;4.39;;
73154;SDS011;61364;52.418;7.382;2022-07-23T02:57:46;4.26;;;4.26;;
73154;SDS011;61364;52.418;7.382;2022-07-23T03:00:12;4.47;;;4.47;;
73154;SDS011;61364;52.418;7.382;2022-07-23T03:02:37;4.35;;;4.35;;
73154;SDS011;61364;52.418;7.382;2022-07-23T03:05:03;4.29;;;4.29;;
73154;SDS011;61364;52.418;7.382;2022-07-23T03:07:29;4.45;;;4.45;;
73154;SDS011;61364;52.418;7.382;2022-07-23T03:09:54;4.40;;;4.40;;
73154;SDS011;61364;52.418;7.382;2022-07-23T03:12:20;4.54;;;4.54;;
73154;SDS011;61364;52.418;7.382;2022-07-23T03:14:46;4.62;;;4.62;;
73154;SDS011;61364;52.418;7.382;2022-07-23T03:17:11;4.66;;;4.66;;
73154;SDS011;61364;52.418;7.382;2022-07-23T03:19:37;4.26;;;4.26;;
73154;SDS011;61364;52.418;7.382;2022-07-23T03:22:03;4.40;;;4.40;;
73154;SDS011;61364;52.418;7.382;2022-07-23T03:27:29;4.80;;;4.80;;
73154;SDS011;61364;52.418;7.382;2022-07-23T03:32:40;5.12;;;5.12;;
73154;SDS011;61364;52.418;7.382;2022-07-23T03:40:38;4.40;;;4.40;;
73154;SDS011;61364;52.418;7.382;2022-07-23T03:43:04;4.29;;;4.29;;
73154;SDS011;61364;52.418;7.382;2022-07-23T03:45:30;4.20;;;4.20;;
73154;SDS011;61364;52.418;7.382;2022-07-23T03:47:56;4.13;;;4.13;;
73154;SDS011;61364;52.418;7.382;2022-07-23T03:50:38;4.24;;;4.24;;
73154;SDS011;61364;52.418;7.382;2022-07-23T03:53:03;4.22;;;4.22;;
73154;SDS011;61364;52.418;7.382;2022-07-23T03:57:58;4.41;;;4.41;;
73154;SDS011;61364;52.418;7.382;2022-07-23T04:00:26;4.70;;;4.70;;
73154;SDS011;61364;52.418;7.382;2022-07-23T04:02:51;4.89;;;4.89;;
73154;SDS011;61364;52.418;7.382;2022-07-23T04:05:17;5.06;;;5.06;;
73154;SDS011;61364;52.418;7.382;2022-07-23T04:10:46;5.71;;;5.71;;
73154;SDS011;61364;52.418;7.382;2022-07-23T04:13:29;5.48;;;5.48;;
73154;SDS011;61364;52.418;7.382;2022-07-23T04:15:55;5.99;;;5.99;;
73154;SDS011;61364;52.418;7.382;2022-07-23T04:18:21;5.30;;;5.30;;
73154;SDS011;61364;52.418;7.382;2022-07-23T04:20:58;5.52;;;5.52;;
73154;SDS011;61364;52.418;7.382;2022-07-23T04:26:26;5.23;;;5.23;;
73154;SDS011;61364;52.418;7.382;2022-07-23T04:29:01;5.42;;;5.42;;
73154;SDS011;61364;52.418;7.382;2022-07-23T04:31:26;5.24;;;5.24;;
73154;SDS011;61364;52.418;7.382;2022-07-23T04:40:12;5.60;;;5.60;;
73154;SDS011;61364;52.418;7.382;2022-07-23T04:42:38;5.00;;;5.00;;
73154;SDS011;61364;52.418;7.382;2022-07-23T04:45:04;4.89;;;4.89;;
73154;SDS011;61364;52.418;7.382;2022-07-23T04:47:30;5.00;;;5.00;;
73154;SDS011;61364;52.418;7.382;2022-07-23T04:49:57;4.92;;;4.92;;
73154;SDS011;61364;52.418;7.382;2022-07-23T04:52:31;5.01;;;5.01;;
73154;SDS011;61364;52.418;7.382;2022-07-23T04:57:52;5.20;;;5.20;;
73154;SDS011;61364;52.418;7.382;2022-07-23T05:00:17;5.39;;;5.39;;
73154;SDS011;61364;52.418;7.382;2022-07-23T05:05:32;5.37;;;5.37;;
73154;SDS011;61364;52.418;7.382;2022-07-23T05:07:58;5.24;;;5.24;;
73154;SDS011;61364;52.418;7.382;2022-07-23T05:10:24;5.79;;;5.79;;
73154;SDS011;61364;52.418;7.382;2022-07-23T05:12:49;5.55;;;5.55;;
73154;SDS011;61364;52.418;7.382;2022-07-23T05:15:15;6.27;;;6.27;;
73154;SDS011;61364;52.418;7.382;2022-07-23T05:17:40;5.94;;;5.94;;
73154;SDS011;61364;52.418;7.382;2022-07-23T05:20:06;5.58;;;5.58;;
73154;SDS011;61364;52.418;7.382;2022-07-23T05:22:32;5.99;;;5.99;;
73154;SDS011;61364;52.418;7.382;2022-07-23T05:24:58;5.71;;;5.71;;
73154;SDS011;61364;52.418;7.382;2022-07-23T05:27:24;5.56;;;5.56;;
73154;SDS011;61364;52.418;7.382;2022-07-23T05:29:49;5.85;;;5.85;;
73154;SDS011;61364;52.418;7.382;2022-07-23T05:32:15;6.10;;;6.10;;
73154;SDS011;61364;52.418;7.382;2022-07-23T05:34:40;6.39;;;6.39;;
73154;SDS011;61364;52.418;7.382;2022-07-23T05:37:06;6.01;;;6.01;;
73154;SDS011;61364;52.418;7.382;2022-07-23T05:39:37;5.80;;;5.80;;
73154;SDS011;61364;52.418;7.382;2022-07-23T05:45:05;5.71;;;5.71;;
73154;SDS011;61364;52.418;7.382;2022-07-23T05:47:44;5.60;;;5.60;;
73154;SDS011;61364;52.418;7.382;2022-07-23T05:50:19;5.98;;;5.98;;
73154;SDS011;61364;52.418;7.382;2022-07-23T05:52:44;5.44;;;5.44;;
73154;SDS011;61364;52.418;7.382;2022-07-23T05:55:10;5.20;;;5.20;;
73154;SDS011;61364;52.418;7.382;2022-07-23T05:57:37;5.53;;;5.53;;
73154;SDS011;61364;52.418;7.382;2022-07-23T06:02:49;5.41;;;5.41;;
73154;SDS011;61364;52.418;7.382;2022-07-23T06:05:14;5.32;;;5.32;;
73154;SDS011;61364;52.418;7.382;2022-07-23T06:07:49;5.45;;;5.45;;
73154;SDS011;61364;52.418;7.382;2022-07-23T06:10:15;5.05;;;5.05;;
73154;SDS011;61364;52.418;7.382;2022-07-23T06:15:35;4.71;;;4.71;;
73154;SDS011;61364;52.418;7.382;2022-07-23T06:18:00;4.66;;;4.66;;
73154;SDS011;61364;52.418;7.382;2022-07-23T06:26:08;4.41;;;4.41;;
73154;SDS011;61364;52.418;7.382;2022-07-23T06:28:33;4.03;;;4.03;;
73154;SDS011;61364;52.418;7.382;2022-07-23T06:33:35;3.65;;;3.65;;
73154;SDS011;61364;52.418;7.382;2022-07-23T06:36:01;3.77;;;3.77;;
73154;SDS011;61364;52.418;7.382;2022-07-23T06:44:18;2.28;;;2.28;;
73154;SDS011;61364;52.418;7.382;2022-07-23T06:52:50;2.82;;;2.82;;
73154;SDS011;61364;52.418;7.382;2022-07-23T06:58:18;2.60;;;2.60;;
73154;SDS011;61364;52.418;7.382;2022-07-23T07:00:45;2.59;;;2.59;;
73154;SDS011;61364;52.418;7.382;2022-07-23T07:06:01;2.32;;;2.32;;
73154;SDS011;61364;52.418;7.382;2022-07-23T07:08:45;2.13;;;2.13;;
73154;SDS011;61364;52.418;7.382;2022-07-23T07:11:11;2.10;;;2.10;;
73154;SDS011;61364;52.418;7.382;2022-07-23T07:13:37;2.13;;;2.13;;
73154;SDS011;61364;52.418;7.382;2022-07-23T07:16:03;1.97;;;1.97;;
73154;SDS011;61364;52.418;7.382;2022-07-23T07:18:28;1.61;;;1.61;;
73154;SDS011;61364;52.418;7.382;2022-07-23T07:21:01;1.73;;;1.73;;
73154;SDS011;61364;52.418;7.382;2022-07-23T07:23:26;1.72;;;1.72;;
73154;SDS011;61364;52.418;7.382;2022-07-23T07:25:52;1.76;;;1.76;;
73154;SDS011;61364;52.418;7.382;2022-07-23T07:31:06;1.75;;;1.75;;
73154;SDS011;61364;52.418;7.382;2022-07-23T07:33:32;1.85;;;1.85;;
73154;SDS011;61364;52.418;7.382;2022-07-23T07:36:16;1.96;;;1.96;;
73154;SDS011;61364;52.418;7.382;2022-07-23T07:38:42;1.74;;;1.74;;
73154;SDS011;61364;52.418;7.382;2022-07-23T07:46:52;1.90;;;1.90;;
73154;SDS011;61364;52.418;7.382;2022-07-23T07:49:26;1.74;;;1.74;;
73154;SDS011;61364;52.418;7.382;2022-07-23T07:51:52;1.75;;;1.75;;
73154;SDS011;61364;52.418;7.382;2022-07-23T07:57:39;1.72;;;1.72;;
73154;SDS011;61364;52.418;7.382;2022-07-23T08:00:05;1.64;;;1.64;;
73154;SDS011;61364;52.418;7.382;2022-07-23T08:02:40;1.77;;;1.77;;
73154;SDS011;61364;52.418;7.382;2022-07-23T08:05:19;1.79;;;1.79;;
73154;SDS011;61364;52.418;7.382;2022-07-23T08:07:46;1.73;;;1.73;;
73154;SDS011;61364;52.418;7.382;2022-07-23T08:12:47;1.60;;;1.60;;
73154;SDS011;61364;52.418;7.382;2022-07-23T08:18:06;1.64;;;1.64;;
73154;SDS011;61364;52.418;7.382;2022-07-23T08:20:40;1.57;;;1.57;;
73154;SDS011;61364;52.418;7.382;2022-07-23T08:26:18;1.81;;;1.81;;
73154;SDS011;61364;52.418;7.382;2022-07-23T08:31:35;1.64;;;1.64;;
73154;SDS011;61364;52.418;7.382;2022-07-23T08:34:01;1.74;;;1.74;;
73154;SDS011;61364;52.418;7.382;2022-07-23T08:36:28;1.74;;;1.74;;
73154;SDS011;61364;52.418;7.382;2022-07-23T08:41:22;1.68;;;1.68;;
73154;SDS011;61364;52.418;7.382;2022-07-23T08:43:47;2.03;;;2.03;;
73154;SDS011;61364;52.418;7.382;2022-07-23T08:46:13;1.56;;;1.56;;
73154;SDS011;61364;52.418;7.382;2022-07-23T09:01:06;1.45;;;1.45;;
73154;SDS011;61364;52.418;7.382;2022-07-23T09:03:32;1.42;;;1.42;;
73154;SDS011;61364;52.418;7.382;2022-07-23T09:06:12;1.28;;;1.28;;
73154;SDS011;61364;52.418;7.382;2022-07-23T09:08:41;1.46;;;1.46;;
73154;SDS011;61364;52.418;7.382;2022-07-23T09:11:08;1.77;;;1.76;;
73154;SDS011;61364;52.418;7.382;2022-07-23T09:13:35;1.35;;;1.35;;
73154;SDS011;61364;52.418;7.382;2022-07-23T09:16:06;1.29;;;1.29;;
73154;SDS011;61364;52.418;7.382;2022-07-23T09:18:37;1.35;;;1.35;;
73154;SDS011;61364;52.418;7.382;2022-07-23T09:24:07;1.36;;;1.36;;
73154;SDS011;61364;52.418;7.382;2022-07-23T09:29:28;1.67;;;1.67;;
73154;SDS011;61364;52.418;7.382;2022-07-23T09:34:33;1.55;;;1.55;;
73154;SDS011;61364;52.418;7.382;2022-07-23T09:37:14;1.34;;;1.34;;
73154;SDS011;61364;52.418;7.382;2022-07-23T09:39:41;1.44;;;1.44;;
73154;SDS011;61364;52.418;7.382;2022-07-23T09:42:24;1.46;;;1.46;;
73154;SDS011;61364;52.418;7.382;2022-07-23T09:44:52;1.44;;;1.44;;
73154;SDS011;61364;52.418;7.382;2022-07-23T09:52:48;1.40;;;1.40;;
73154;SDS011;61364;52.418;7.382;2022-07-23T09:55:15;1.56;;;1.56;;
73154;SDS011;61364;52.418;7.382;2022-07-23T09:57:50;1.46;;;1.46;;
73154;SDS011;61364;52.418;7.382;2022-07-23T10:00:17;1.53;;;1.53;;
73154;SDS011;61364;52.418;7.382;2022-07-23T10:02:42;1.47;;;1.47;;
73154;SDS011;61364;52.418;7.382;2022-07-23T10:07:56;1.42;;;1.42;;
73154;SDS011;61364;52.418;7.382;2022-07-23T10:13:00;1.38;;;1.38;;
73154;SDS011;61364;52.418;7.382;2022-07-23T10:15:48;1.30;;;1.30;;
73154;SDS011;61364;52.418;7.382;2022-07-23T10:18:15;1.48;;;1.48;;
73154;SDS011;61364;52.418;7.382;2022-07-23T10:23:45;1.55;;;1.55;;
73154;SDS011;61364;52.418;7.382;2022-07-23T10:26:19;1.29;;;1.29;;
73154;SDS011;61364;52.418;7.382;2022-07-23T10:34:49;1.31;;;1.31;;
73154;SDS011;61364;52.418;7.382;2022-07-23T10:37:38;1.67;;;1.67;;
73154;SDS011;61364;52.418;7.382;2022-07-23T10:42:42;1.44;;;1.44;;
73154;SDS011;61364;52.418;7.382;2022-07-23T10:59:16;1.34;;;1.34;;
73154;SDS011;61364;52.418;7.382;2022-07-23T11:01:42;1.47;;;1.47;;
73154;SDS011;61364;52.418;7.382;2022-07-23T11:04:07;1.57;;;1.57;;
73154;SDS011;61364;52.418;7.382;2022-07-23T11:12:31;1.51;;;1.51;;
73154;SDS011;61364;52.418;7.382;2022-07-23T11:22:38;1.74;;;1.74;;
73154;SDS011;61364;52.418;7.382;2022-07-23T11:28:07;1.60;;;1.60;;
73154;SDS011;61364;52.418;7.382;2022-07-23T11:30:52;1.47;;;1.47;;
73154;SDS011;61364;52.418;7.382;2022-07-23T11:33:35;1.61;;;1.61;;
73154;SDS011;61364;52.418;7.382;2022-07-23T11:36:01;1.63;;;1.63;;
73154;SDS011;61364;52.418;7.382;2022-07-23T11:38:35;1.54;;;1.54;;
73154;SDS011;61364;52.418;7.382;2022-07-23T11:41:04;1.87;;;1.87;;
73154;SDS011;61364;52.418;7.382;2022-07-23T11:43:36;1.58;;;1.58;;
73154;SDS011;61364;52.418;7.382;2022-07-23T11:46:02;1.78;;;1.78;;
73154;SDS011;61364;52.418;7.382;2022-07-23T11:51:39;1.54;;;1.54;;
73154;SDS011;61364;52.418;7.382;2022-07-23T11:54:05;1.66;;;1.66;;
73154;SDS011;61364;52.418;7.382;2022-07-23T11:59:34;1.46;;;1.46;;
73154;SDS011;61364;52.418;7.382;2022-07-23T12:02:10;1.54;;;1.54;;
73154;SDS011;61364;52.418;7.382;2022-07-23T12:04:42;1.62;;;1.62;;
73154;SDS011;61364;52.418;7.382;2022-07-23T12:12:57;1.67;;;1.67;;
73154;SDS011;61364;52.418;7.382;2022-07-23T12:18:26;1.63;;;1.63;;
73154;SDS011;61364;52.418;7.382;2022-07-23T12:24:05;1.66;;;1.66;;
73154;SDS011;61364;52.418;7.382;2022-07-23T12:26:30;1.87;;;1.87;;
73154;SDS011;61364;52.418;7.382;2022-07-23T12:31:27;2.00;;;2.00;;
73154;SDS011;61364;52.418;7.382;2022-07-23T12:36:48;1.51;;;1.51;;
73154;SDS011;61364;52.418;7.382;2022-07-23T12:42:21;1.90;;;1.90;;
73154;SDS011;61364;52.418;7.382;2022-07-23T12:45:08;1.78;;;1.78;;
73154;SDS011;61364;52.418;7.382;2022-07-23T12:48:00;1.63;;;1.63;;
73154;SDS011;61364;52.418;7.382;2022-07-23T12:50:30;1.63;;;1.63;;
73154;SDS011;61364;52.418;7.382;2022-07-23T13:01:28;1.67;;;1.67;;
73154;SDS011;61364;52.418;7.382;2022-07-23T13:06:58;1.68;;;1.68;;
73154;SDS011;61364;52.418;7.382;2022-07-23T13:12:34;2.24;;;2.24;;
73154;SDS011;61364;52.418;7.382;2022-07-23T13:14:59;2.07;;;2.07;;
73154;SDS011;61364;52.418;7.382;2022-07-23T13:17:31;1.85;;;1.85;;
73154;SDS011;61364;52.418;7.382;2022-07-23T13:19:56;1.86;;;1.86;;
73154;SDS011;61364;52.418;7.382;2022-07-23T13:22:22;1.80;;;1.80;;
73154;SDS011;61364;52.418;7.382;2022-07-23T13:24:47;1.76;;;1.76;;
73154;SDS011;61364;52.418;7.382;2022-07-23T13:27:13;1.94;;;1.94;;
73154;SDS011;61364;52.418;7.382;2022-07-23T13:29:38;1.92;;;1.92;;
73154;SDS011;61364;52.418;7.382;2022-07-23T13:32:16;1.91;;;1.91;;
73154;SDS011;61364;52.418;7.382;2022-07-23T13:34:41;2.22;;;2.22;;
73154;SDS011;61364;52.418;7.382;2022-07-23T13:37:10;2.15;;;2.15;;
73154;SDS011;61364;52.418;7.382;2022-07-23T13:39:35;1.98;;;1.98;;
73154;SDS011;61364;52.418;7.382;2022-07-23T13:42:02;1.88;;;1.88;;
73154;SDS011;61364;52.418;7.382;2022-07-23T13:44:27;1.67;;;1.67;;
73154;SDS011;61364;52.418;7.382;2022-07-23T13:46:53;1.96;;;1.96;;
73154;SDS011;61364;52.418;7.382;2022-07-23T13:49:19;1.89;;;1.89;;
73154;SDS011;61364;52.418;7.382;2022-07-23T13:51:44;1.95;;;1.95;;
73154;SDS011;61364;52.418;7.382;2022-07-23T13:54:09;2.31;;;2.31;;
73154;SDS011;61364;52.418;7.382;2022-07-23T13:56:35;1.99;;;1.99;;
73154;SDS011;61364;52.418;7.382;2022-07-23T13:59:01;1.85;;;1.85;;
73154;SDS011;61364;52.418;7.382;2022-07-23T14:07:33;1.65;;;1.65;;
73154;SDS011;61364;52.418;7.382;2022-07-23T14:10:06;1.60;;;1.60;;
73154;SDS011;61364;52.418;7.382;2022-07-23T14:12:33;1.76;;;1.76;;
73154;SDS011;61364;52.418;7.382;2022-07-23T14:14:59;1.70;;;1.70;;
73154;SDS011;61364;52.418;7.382;2022-07-23T14:17:25;1.76;;;1.76;;
73154;SDS011;61364;52.418;7.382;2022-07-23T14:19:51;1.94;;;1.94;;
73154;SDS011;61364;52.418;7.382;2022-07-23T14:22:17;2.28;;;2.28;;
73154;SDS011;61364;52.418;7.382;2022-07-23T14:24:43;1.78;;;1.78;;
73154;SDS011;61364;52.418;7.382;2022-07-23T14:27:20;2.18;;;2.18;;
73154;SDS011;61364;52.418;7.382;2022-07-23T14:29:45;1.95;;;1.95;;
73154;SDS011;61364;52.418;7.382;2022-07-23T14:34:42;1.72;;;1.72;;
73154;SDS011;61364;52.418;7.382;2022-07-23T14:37:09;2.01;;;2.01;;
73154;SDS011;61364;52.418;7.382;2022-07-23T14:39:36;1.81;;;1.81;;
73154;SDS011;61364;52.418;7.382;2022-07-23T14:45:10;1.83;;;1.83;;
73154;SDS011;61364;52.418;7.382;2022-07-23T14:47:36;1.77;;;1.77;;
73154;SDS011;61364;52.418;7.382;2022-07-23T14:50:14;1.83;;;1.83;;
73154;SDS011;61364;52.418;7.382;2022-07-23T14:52:40;1.71;;;1.71;;
73154;SDS011;61364;52.418;7.382;2022-07-23T14:55:05;1.72;;;1.72;;
73154;SDS011;61364;52.418;7.382;2022-07-23T14:57:42;1.89;;;1.89;;
73154;SDS011;61364;52.418;7.382;2022-07-23T15:00:08;2.00;;;2.00;;
73154;SDS011;61364;52.418;7.382;2022-07-23T15:02:36;1.89;;;1.89;;
73154;SDS011;61364;52.418;7.382;2022-07-23T15:05:02;1.94;;;1.94;;
73154;SDS011;61364;52.418;7.382;2022-07-23T15:13:08;1.71;;;1.71;;
73154;SDS011;61364;52.418;7.382;2022-07-23T15:18:43;2.00;;;2.00;;
73154;SDS011;61364;52.418;7.382;2022-07-23T15:21:09;1.86;;;1.86;;
73154;SDS011;61364;52.418;7.382;2022-07-23T15:26:35;2.08;;;2.08;;
73154;SDS011;61364;52.418;7.382;2022-07-23T15:31:45;2.13;;;2.13;;
73154;SDS011;61364;52.418;7.382;2022-07-23T15:39:58;2.05;;;2.05;;
73154;SDS011;61364;52.418;7.382;2022-07-23T15:45:17;2.05;;;2.05;;
73154;SDS011;61364;52.418;7.382;2022-07-23T15:47:42;2.19;;;2.19;;
73154;SDS011;61364;52.418;7.382;2022-07-23T15:50:08;2.27;;;2.27;;
73154;SDS011;61364;52.418;7.382;2022-07-23T15:52:35;2.33;;;2.33;;
73154;SDS011;61364;52.418;7.382;2022-07-23T15:55:02;2.03;;;2.03;;
73154;SDS011;61364;52.418;7.382;2022-07-23T15:57:28;2.10;;;2.10;;
73154;SDS011;61364;52.418;7.382;2022-07-23T15:59:54;2.05;;;2.05;;
73154;SDS011;61364;52.418;7.382;2022-07-23T16:02:21;2.10;;;2.10;;
73154;SDS011;61364;52.418;7.382;2022-07-23T16:04:47;1.95;;;1.95;;
73154;SDS011;61364;52.418;7.382;2022-07-23T16:07:13;2.13;;;2.13;;
73154;SDS011;61364;52.418;7.382;2022-07-23T16:09:38;2.12;;;2.12;;
73154;SDS011;61364;52.418;7.382;2022-07-23T16:12:04;2.27;;;2.27;;
73154;SDS011;61364;52.418;7.382;2022-07-23T16:14:29;2.20;;;2.20;;
73154;SDS011;61364;52.418;7.382;2022-07-23T16:16:55;2.09;;;2.09;;
73154;SDS011;61364;52.418;7.382;2022-07-23T16:19:20;2.19;;;2.19;;
73154;SDS011;61364;52.418;7.382;2022-07-23T16:21:47;2.05;;;2.05;;
73154;SDS011;61364;52.418;7.382;2022-07-23T16:24:13;1.98;;;1.98;;
73154;SDS011;61364;52.418;7.382;2022-07-23T16:26:38;2.16;;;2.16;;
73154;SDS011;61364;52.418;7.382;2022-07-23T16:29:03;2.14;;;2.14;;
73154;SDS011;61364;52.418;7.382;2022-07-23T16:31:29;2.52;;;2.52;;
73154;SDS011;61364;52.418;7.382;2022-07-23T16:33:56;2.32;;;2.32;;
73154;SDS011;61364;52.418;7.382;2022-07-23T16:36:22;2.36;;;2.36;;
73154;SDS011;61364;52.418;7.382;2022-07-23T16:38:47;2.43;;;2.43;;
73154;SDS011;61364;52.418;7.382;2022-07-23T16:41:13;2.49;;;2.49;;
73154;SDS011;61364;52.418;7.382;2022-07-23T16:43:38;2.24;;;2.24;;
73154;SDS011;61364;52.418;7.382;2022-07-23T16:46:04;2.30;;;2.30;;
73154;SDS011;61364;52.418;7.382;2022-07-23T16:48:32;2.31;;;2.31;;
73154;SDS011;61364;52.418;7.382;2022-07-23T16:50:57;2.26;;;2.26;;
73154;SDS011;61364;52.418;7.382;2022-07-23T16:53:23;2.35;;;2.35;;
73154;SDS011;61364;52.418;7.382;2022-07-23T16:55:48;2.24;;;2.24;;
73154;SDS011;61364;52.418;7.382;2022-07-23T16:58:14;2.33;;;2.33;;
73154;SDS011;61364;52.418;7.382;2022-07-23T17:00:40;2.55;;;2.55;;
73154;SDS011;61364;52.418;7.382;2022-07-23T17:03:06;2.55;;;2.55;;
73154;SDS011;61364;52.418;7.382;2022-07-23T17:05:31;2.52;;;2.52;;
73154;SDS011;61364;52.418;7.382;2022-07-23T17:07:57;2.34;;;2.34;;
73154;SDS011;61364;52.418;7.382;2022-07-23T17:10:24;2.57;;;2.57;;
73154;SDS011;61364;52.418;7.382;2022-07-23T17:12:50;2.44;;;2.44;;
73154;SDS011;61364;52.418;7.382;2022-07-23T17:15:16;2.39;;;2.39;;
73154;SDS011;61364;52.418;7.382;2022-07-23T17:17:42;2.23;;;2.23;;
73154;SDS011;61364;52.418;7.382;2022-07-23T17:20:08;2.39;;;2.39;;
73154;SDS011;61364;52.418;7.382;2022-07-23T17:22:33;2.41;;;2.41;;
73154;SDS011;61364;52.418;7.382;2022-07-23T17:24:59;2.46;;;2.46;;
73154;SDS011;61364;52.418;7.382;2022-07-23T17:27:25;2.34;;;2.34;;
73154;SDS011;61364;52.418;7.382;2022-07-23T17:29:51;2.18;;;2.18;;
73154;SDS011;61364;52.418;7.382;2022-07-23T17:32:16;2.57;;;2.57;;
73154;SDS011;61364;52.418;7.382;2022-07-23T17:34:42;2.40;;;2.40;;
73154;SDS011;61364;52.418;7.382;2022-07-23T17:37:07;2.52;;;2.52;;
73154;SDS011;61364;52.418;7.382;2022-07-23T17:39:33;2.54;;;2.54;;
73154;SDS011;61364;52.418;7.382;2022-07-23T17:41:59;2.52;;;2.52;;
73154;SDS011;61364;52.418;7.382;2022-07-23T17:44:24;2.49;;;2.49;;
73154;SDS011;61364;52.418;7.382;2022-07-23T17:46:50;2.57;;;2.57;;
73154;SDS011;61364;52.418;7.382;2022-07-23T17:49:15;2.36;;;2.36;;
73154;SDS011;61364;52.418;7.382;2022-07-23T17:51:41;2.50;;;2.50;;
73154;SDS011;61364;52.418;7.382;2022-07-23T17:54:06;2.32;;;2.32;;
73154;SDS011;61364;52.418;7.382;2022-07-23T17:56:32;2.54;;;2.54;;
73154;SDS011;61364;52.418;7.382;2022-07-23T17:58:58;2.48;;;2.48;;
73154;SDS011;61364;52.418;7.382;2022-07-23T18:01:24;2.52;;;2.52;;
73154;SDS011;61364;52.418;7.382;2022-07-23T18:03:50;2.41;;;2.41;;
73154;SDS011;61364;52.418;7.382;2022-07-23T18:06:16;2.43;;;2.43;;
73154;SDS011;61364;52.418;7.382;2022-07-23T18:08:43;2.55;;;2.55;;
73154;SDS011;61364;52.418;7.382;2022-07-23T18:11:08;2.46;;;2.46;;
73154;SDS011;61364;52.418;7.382;2022-07-23T18:13:34;2.42;;;2.42;;
73154;SDS011;61364;52.418;7.382;2022-07-23T18:16:00;2.39;;;2.39;;
73154;SDS011;61364;52.418;7.382;2022-07-23T18:18:26;2.69;;;2.69;;
73154;SDS011;61364;52.418;7.382;2022-07-23T18:20:53;2.48;;;2.48;;
73154;SDS011;61364;52.418;7.382;2022-07-23T18:23:22;2.46;;;2.46;;
73154;SDS011;61364;52.418;7.382;2022-07-23T18:25:47;2.87;;;2.87;;
73154;SDS011;61364;52.418;7.382;2022-07-23T18:28:13;2.55;;;2.55;;
73154;SDS011;61364;52.418;7.382;2022-07-23T18:30:39;2.55;;;2.55;;
73154;SDS011;61364;52.418;7.382;2022-07-23T18:33:04;2.60;;;2.60;;
73154;SDS011;61364;52.418;7.382;2022-07-23T18:35:30;2.60;;;2.60;;
73154;SDS011;61364;52.418;7.382;2022-07-23T18:37:56;2.44;;;2.44;;
73154;SDS011;61364;52.418;7.382;2022-07-23T18:40:21;2.37;;;2.37;;
73154;SDS011;61364;52.418;7.382;2022-07-23T18:42:47;2.53;;;2.53;;
73154;SDS011;61364;52.418;7.382;2022-07-23T18:45:13;2.62;;;2.62;;
73154;SDS011;61364;52.418;7.382;2022-07-23T18:47:39;2.71;;;2.71;;
73154;SDS011;61364;52.418;7.382;2022-07-23T18:50:06;2.74;;;2.74;;
73154;SDS011;61364;52.418;7.382;2022-07-23T18:52:33;2.58;;;2.58;;
73154;SDS011;61364;52.418;7.382;2022-07-23T18:54:58;2.47;;;2.47;;
73154;SDS011;61364;52.418;7.382;2022-07-23T18:57:24;2.54;;;2.54;;
73154;SDS011;61364;52.418;7.382;2022-07-23T18:59:49;2.60;;;2.60;;
73154;SDS011;61364;52.418;7.382;2022-07-23T19:02:15;2.91;;;2.91;;
73154;SDS011;61364;52.418;7.382;2022-07-23T19:04:42;2.83;;;2.83;;
73154;SDS011;61364;52.418;7.382;2022-07-23T19:07:08;2.71;;;2.71;;
73154;SDS011;61364;52.418;7.382;2022-07-23T19:09:33;2.68;;;2.68;;
73154;SDS011;61364;52.418;7.382;2022-07-23T19:11:59;2.80;;;2.80;;
73154;SDS011;61364;52.418;7.382;2022-07-23T19:14:25;2.79;;;2.79;;
73154;SDS011;61364;52.418;7.382;2022-07-23T19:16:50;2.87;;;2.87;;
73154;SDS011;61364;52.418;7.382;2022-07-23T19:19:16;2.83;;;2.83;;
73154;SDS011;61364;52.418;7.382;2022-07-23T19:21:42;2.84;;;2.84;;
73154;SDS011;61364;52.418;7.382;2022-07-23T19:24:07;2.89;;;2.89;;
73154;SDS011;61364;52.418;7.382;2022-07-23T19:26:33;2.79;;;2.79;;
73154;SDS011;61364;52.418;7.382;2022-07-23T19:28:58;2.83;;;2.83;;
73154;SDS011;61364;52.418;7.382;2022-07-23T19:31:24;2.76;;;2.76;;
73154;SDS011;61364;52.418;7.382;2022-07-23T19:33:49;2.78;;;2.78;;
73154;SDS011;61364;52.418;7.382;2022-07-23T19:36:15;2.92;;;2.92;;
73154;SDS011;61364;52.418;7.382;2022-07-23T19:38:41;2.99;;;2.99;;
73154;SDS011;61364;52.418;7.382;2022-07-23T19:41:08;2.74;;;2.74;;